Cochise — WDD8952 — position and weather

sailwx.info

Track history (hours):
 
Tides and Currents Weather Stations Pressure Air Temp Water Temp Dewpoint Dewpoint Depression Visibility Wind Speed Wind Dir Waves Ship Positions

Cochise

Owner: Sause Bros, Coos Bay, OR. More information available from US FCC via Universal Licensing System and Coast Guard Vessel Documentation Center.

Last reported at 2017-Feb-27 13:32 UTC. Time now 2017-Feb-27 14:17 UTC.
Position N 37°46' W 122°23'.

Length 32 m; draft 4.8 m.

Type: Towing. MMSI: 367304990.

Date/timePositionNaut miles runAvg speedWind from/ knotsBaromVisibWave heightAir tempDewpointWater temp
2017-Feb-27 13:32N 37°46' W 122°23'0 0.0
2017-Feb-27 12:32N 37°46' W 122°23'0 0.0
2017-Feb-27 11:32N 37°46' W 122°23'0 0.0
2017-Feb-27 10:29N 37°46' W 122°23'0 0.0
2017-Feb-27 09:32N 37°46' W 122°23'0 0.0
2017-Feb-27 08:32N 37°46' W 122°23'0 0.0
2017-Feb-27 07:32N 37°46' W 122°23'0 0.0
2017-Feb-27 06:32N 37°46' W 122°23'0 0.0
2017-Feb-27 05:32N 37°46' W 122°23'0 0.0
2017-Feb-27 04:32N 37°46' W 122°23'0 0.0
2017-Feb-27 03:34N 37°47' W 122°23'5 4.9
2017-Feb-27 02:33N 37°49' W 122°28'6 5.8
2017-Feb-27 01:34N 37°47' W 122°35'7 6.8
2017-Feb-27 00:33N 37°46' W 122°44'10 9.8
2017-Feb-26 23:33N 37°50' W 122°55'10 9.9
2017-Feb-26 22:33N 37°55' W 123°06'9 9.4
2017-Feb-26 21:33N 38°01' W 123°15'1010.0
2017-Feb-26 20:33N 38°09' W 123°23'1010.0
2017-Feb-26 19:33N 38°17' W 123°29'10 9.9
2017-Feb-26 18:33N 38°26' W 123°36'10 9.7
2017-Feb-26 17:33N 38°34' W 123°43'  
2017-Feb-22 18:30N 38°26' W 123°35'8 8.7
2017-Feb-22 17:33N 38°19' W 123°29'9 8.8
2017-Feb-22 16:33N 38°12' W 123°22'9 9.0
2017-Feb-22 15:33N 38°05' W 123°15'9 8.7
2017-Feb-22 14:30N 37°58' W 123°07'8 8.6
2017-Feb-22 13:33N 37°54' W 122°59'9 8.8
2017-Feb-22 12:32N 37°50' W 122°49'9 9.0
2017-Feb-22 11:33N 37°46' W 122°38'10 9.7
2017-Feb-22 10:33N 37°50' W 122°27'6 6.0
2017-Feb-22 09:33N 37°55' W 122°25'0 0.2
2017-Feb-22 08:34N 37°55' W 122°25'0 0.0
2017-Feb-22 07:33N 37°55' W 122°25'0 0.0
2017-Feb-22 06:33N 37°55' W 122°25'0 0.0
2017-Feb-22 05:33N 37°55' W 122°25'0 0.0
2017-Feb-22 04:33N 37°55' W 122°25'0 0.0
2017-Feb-22 03:33N 37°55' W 122°25'0 0.0
2017-Feb-22 02:33N 37°55' W 122°25'0 0.0
2017-Feb-22 01:33N 37°55' W 122°25'0 0.0
2017-Feb-22 00:33N 37°55' W 122°25'0 0.0
2017-Feb-21 23:33N 37°55' W 122°25'0 0.0
2017-Feb-21 22:30N 37°55' W 122°25'0 0.0
2017-Feb-21 21:33N 37°55' W 122°25'0 0.1
2017-Feb-21 20:33N 37°55' W 122°24'1 0.7
2017-Feb-21 19:34N 37°55' W 122°24'2 1.9
2017-Feb-21 18:34N 37°55' W 122°22'3 3.2
2017-Feb-21 17:33N 37°52' W 122°24'6 6.4
2017-Feb-21 16:33N 37°46' W 122°23'1 0.7
2017-Feb-21 15:34N 37°47' W 122°23'0 0.1
2017-Feb-21 14:33N 37°46' W 122°23'1 0.8
2017-Feb-21 13:34N 37°47' W 122°23'7 6.9
2017-Feb-21 12:33N 37°54' W 122°22'1 0.6
2017-Feb-21 11:33N 37°55' W 122°22'0 0.0
2017-Feb-21 10:30N 37°55' W 122°22'0 0.0
2017-Feb-21 09:27N 37°55' W 122°22'0 0.0
2017-Feb-21 08:33N 37°55' W 122°22'0 0.0
2017-Feb-21 07:33N 37°55' W 122°22'0 0.0
2017-Feb-21 06:33N 37°55' W 122°22'0 0.0
2017-Feb-21 05:33N 37°55' W 122°22'0 0.0
2017-Feb-21 04:33N 37°55' W 122°22'0 0.0
2017-Feb-21 03:33N 37°55' W 122°22'0 0.0
2017-Feb-21 02:33N 37°55' W 122°22'0 0.0
2017-Feb-21 01:33N 37°55' W 122°22'0 0.0
2017-Feb-21 00:33N 37°55' W 122°22'0 0.0
2017-Feb-20 23:33N 37°55' W 122°22'0 0.0
2017-Feb-20 22:33N 37°55' W 122°22'0 0.0
2017-Feb-20 21:33N 37°55' W 122°22'0 0.0
2017-Feb-20 20:33N 37°55' W 122°22'0 0.0
2017-Feb-20 19:33N 37°55' W 122°22'0 0.0
2017-Feb-20 18:33N 37°55' W 122°22'0 0.0
2017-Feb-20 17:33N 37°55' W 122°22'0 0.0
2017-Feb-20 16:33N 37°55' W 122°22'0 0.0
2017-Feb-20 15:33N 37°55' W 122°22'0 0.0
2017-Feb-20 14:33N 37°55' W 122°22'0 0.0
2017-Feb-20 13:33N 37°55' W 122°22'0 0.0
2017-Feb-20 12:33N 37°55' W 122°22'0 0.0
2017-Feb-20 11:33N 37°55' W 122°22'0 0.0
2017-Feb-20 10:33N 37°55' W 122°22'0 0.0
2017-Feb-20 09:33N 37°55' W 122°22'0 0.0
2017-Feb-20 08:33N 37°55' W 122°22'0 0.0
2017-Feb-20 07:33N 37°55' W 122°22'0 0.0
2017-Feb-20 06:33N 37°55' W 122°22'0 0.0
2017-Feb-20 05:33N 37°55' W 122°22'0 0.0
2017-Feb-20 04:33N 37°55' W 122°22'0 0.0
2017-Feb-20 03:33N 37°55' W 122°22'0 0.0
2017-Feb-20 02:33N 37°55' W 122°22'0 0.0
2017-Feb-20 01:33N 37°55' W 122°22'0 0.0
2017-Feb-20 00:33N 37°55' W 122°22'0 0.0
2017-Feb-19 23:33N 37°55' W 122°22'0 0.0
2017-Feb-19 22:27N 37°55' W 122°22'0 0.0
2017-Feb-19 21:33N 37°55' W 122°22'0 0.0
2017-Feb-19 20:33N 37°55' W 122°22'0 0.0
2017-Feb-19 19:33N 37°55' W 122°22'3 2.9
2017-Feb-19 18:33N 37°55' W 122°25'7 7.4
2017-Feb-19 17:33N 38°02' W 122°21'5 0.3
2017-Feb-19 00:17N 38°04' W 122°15'0 0.5
2017-Feb-18 23:33N 38°04' W 122°15'2 2.0
2017-Feb-18 22:33N 38°03' W 122°18'3 3.5
2017-Feb-18 21:33N 38°02' W 122°22'3 3.3
2017-Feb-18 20:33N 37°60' W 122°25'3 3.2
2017-Feb-18 19:33N 37°57' W 122°26'2 1.6
2017-Feb-18 18:33N 37°55' W 122°25'0 0.2
2017-Feb-18 17:32N 37°55' W 122°25'0 0.0
2017-Feb-18 16:32N 37°55' W 122°25'0 0.0
2017-Feb-18 15:32N 37°55' W 122°25'0 0.0
2017-Feb-18 14:32N 37°55' W 122°25'0 0.0
2017-Feb-18 13:14N 37°55' W 122°25'0 0.0
2017-Feb-18 12:32N 37°55' W 122°25'0 0.0
2017-Feb-18 10:26N 37°55' W 122°25'0 0.0
2017-Feb-18 09:32N 37°55' W 122°25'0 0.0
2017-Feb-18 08:29N 37°55' W 122°25'0 0.0
2017-Feb-18 07:29N 37°55' W 122°25'0 0.0
2017-Feb-18 06:29N 37°55' W 122°25'0 0.0
2017-Feb-18 05:26N 37°55' W 122°25'0 0.0
2017-Feb-18 04:32N 37°55' W 122°25'0 0.0
2017-Feb-18 02:29N 37°55' W 122°25'0 0.0
2017-Feb-18 01:14N 37°55' W 122°25'0 0.0
2017-Feb-18 00:32N 37°55' W 122°25'0 0.0
2017-Feb-17 23:29N 37°55' W 122°25'0 0.0
2017-Feb-17 22:26N 37°55' W 122°25'0 0.0
2017-Feb-17 21:32N 37°55' W 122°25'0 0.0
2017-Feb-17 20:32N 37°55' W 122°25'0 0.0
2017-Feb-17 19:32N 37°55' W 122°25'0 0.0
2017-Feb-17 18:32N 37°55' W 122°25'0 0.0
2017-Feb-17 17:32N 37°55' W 122°25'0 0.0
2017-Feb-17 16:32N 37°55' W 122°25'1 0.7
2017-Feb-17 15:33N 37°55' W 122°25'1 0.9
2017-Feb-17 14:33N 37°55' W 122°26'0 0.0
2017-Feb-17 13:33N 37°55' W 122°26'  
Track history (hours):
 
Tides and Currents Weather Stations Pressure Air Temp Water Temp Dewpoint Dewpoint Depression Visibility Wind Speed Wind Dir Waves Ship Positions

Cochise

Owner: Sause Bros, Coos Bay, OR. More information available from US FCC via Universal Licensing System and Coast Guard Vessel Documentation Center.

Last reported at 2017-Feb-27 13:32 UTC. Time now 2017-Feb-27 14:17 UTC.
Position N 37°46' W 122°23'.

Length 32 m; draft 4.8 m.

Type: Towing. MMSI: 367304990.

Date/timePositionNaut miles runAvg speedWind from/ knotsBaromVisibWave heightAir tempDewpointWater temp
2017-Feb-27 13:32N 37°46' W 122°23'0 0.0
2017-Feb-27 12:32N 37°46' W 122°23'0 0.0
2017-Feb-27 11:32N 37°46' W 122°23'0 0.0
2017-Feb-27 10:29N 37°46' W 122°23'0 0.0
2017-Feb-27 09:32N 37°46' W 122°23'0 0.0
2017-Feb-27 08:32N 37°46' W 122°23'0 0.0
2017-Feb-27 07:32N 37°46' W 122°23'0 0.0
2017-Feb-27 06:32N 37°46' W 122°23'0 0.0
2017-Feb-27 05:32N 37°46' W 122°23'0 0.0
2017-Feb-27 04:32N 37°46' W 122°23'0 0.0
2017-Feb-27 03:34N 37°47' W 122°23'5 4.9
2017-Feb-27 02:33N 37°49' W 122°28'6 5.8
2017-Feb-27 01:34N 37°47' W 122°35'7 6.8
2017-Feb-27 00:33N 37°46' W 122°44'10 9.8
2017-Feb-26 23:33N 37°50' W 122°55'10 9.9
2017-Feb-26 22:33N 37°55' W 123°06'9 9.4
2017-Feb-26 21:33N 38°01' W 123°15'1010.0
2017-Feb-26 20:33N 38°09' W 123°23'1010.0
2017-Feb-26 19:33N 38°17' W 123°29'10 9.9
2017-Feb-26 18:33N 38°26' W 123°36'10 9.7
2017-Feb-26 17:33N 38°34' W 123°43'  
2017-Feb-22 18:30N 38°26' W 123°35'8 8.7
2017-Feb-22 17:33N 38°19' W 123°29'9 8.8
2017-Feb-22 16:33N 38°12' W 123°22'9 9.0
2017-Feb-22 15:33N 38°05' W 123°15'9 8.7
2017-Feb-22 14:30N 37°58' W 123°07'8 8.6
2017-Feb-22 13:33N 37°54' W 122°59'9 8.8
2017-Feb-22 12:32N 37°50' W 122°49'9 9.0
2017-Feb-22 11:33N 37°46' W 122°38'10 9.7
2017-Feb-22 10:33N 37°50' W 122°27'6 6.0
2017-Feb-22 09:33N 37°55' W 122°25'0 0.2
2017-Feb-22 08:34N 37°55' W 122°25'0 0.0
2017-Feb-22 07:33N 37°55' W 122°25'0 0.0
2017-Feb-22 06:33N 37°55' W 122°25'0 0.0
2017-Feb-22 05:33N 37°55' W 122°25'0 0.0
2017-Feb-22 04:33N 37°55' W 122°25'0 0.0
2017-Feb-22 03:33N 37°55' W 122°25'0 0.0
2017-Feb-22 02:33N 37°55' W 122°25'0 0.0
2017-Feb-22 01:33N 37°55' W 122°25'0 0.0
2017-Feb-22 00:33N 37°55' W 122°25'0 0.0
2017-Feb-21 23:33N 37°55' W 122°25'0 0.0
2017-Feb-21 22:30N 37°55' W 122°25'0 0.0
2017-Feb-21 21:33N 37°55' W 122°25'0 0.1
2017-Feb-21 20:33N 37°55' W 122°24'1 0.7
2017-Feb-21 19:34N 37°55' W 122°24'2 1.9
2017-Feb-21 18:34N 37°55' W 122°22'3 3.2
2017-Feb-21 17:33N 37°52' W 122°24'6 6.4
2017-Feb-21 16:33N 37°46' W 122°23'1 0.7
2017-Feb-21 15:34N 37°47' W 122°23'0 0.1
2017-Feb-21 14:33N 37°46' W 122°23'1 0.8
2017-Feb-21 13:34N 37°47' W 122°23'7 6.9
2017-Feb-21 12:33N 37°54' W 122°22'1 0.6
2017-Feb-21 11:33N 37°55' W 122°22'0 0.0
2017-Feb-21 10:30N 37°55' W 122°22'0 0.0
2017-Feb-21 09:27N 37°55' W 122°22'0 0.0
2017-Feb-21 08:33N 37°55' W 122°22'0 0.0
2017-Feb-21 07:33N 37°55' W 122°22'0 0.0
2017-Feb-21 06:33N 37°55' W 122°22'0 0.0
2017-Feb-21 05:33N 37°55' W 122°22'0 0.0
2017-Feb-21 04:33N 37°55' W 122°22'0 0.0
2017-Feb-21 03:33N 37°55' W 122°22'0 0.0
2017-Feb-21 02:33N 37°55' W 122°22'0 0.0
2017-Feb-21 01:33N 37°55' W 122°22'0 0.0
2017-Feb-21 00:33N 37°55' W 122°22'0 0.0
2017-Feb-20 23:33N 37°55' W 122°22'0 0.0
2017-Feb-20 22:33N 37°55' W 122°22'0 0.0
2017-Feb-20 21:33N 37°55' W 122°22'0 0.0
2017-Feb-20 20:33N 37°55' W 122°22'0 0.0
2017-Feb-20 19:33N 37°55' W 122°22'0 0.0
2017-Feb-20 18:33N 37°55' W 122°22'0 0.0
2017-Feb-20 17:33N 37°55' W 122°22'0 0.0
2017-Feb-20 16:33N 37°55' W 122°22'0 0.0
2017-Feb-20 15:33N 37°55' W 122°22'0 0.0
2017-Feb-20 14:33N 37°55' W 122°22'0 0.0
2017-Feb-20 13:33N 37°55' W 122°22'0 0.0
2017-Feb-20 12:33N 37°55' W 122°22'0 0.0
2017-Feb-20 11:33N 37°55' W 122°22'0 0.0
2017-Feb-20 10:33N 37°55' W 122°22'0 0.0
2017-Feb-20 09:33N 37°55' W 122°22'0 0.0
2017-Feb-20 08:33N 37°55' W 122°22'0 0.0
2017-Feb-20 07:33N 37°55' W 122°22'0 0.0
2017-Feb-20 06:33N 37°55' W 122°22'0 0.0
2017-Feb-20 05:33N 37°55' W 122°22'0 0.0
2017-Feb-20 04:33N 37°55' W 122°22'0 0.0
2017-Feb-20 03:33N 37°55' W 122°22'0 0.0
2017-Feb-20 02:33N 37°55' W 122°22'0 0.0
2017-Feb-20 01:33N 37°55' W 122°22'0 0.0
2017-Feb-20 00:33N 37°55' W 122°22'0 0.0
2017-Feb-19 23:33N 37°55' W 122°22'0 0.0
2017-Feb-19 22:27N 37°55' W 122°22'0 0.0
2017-Feb-19 21:33N 37°55' W 122°22'0 0.0
2017-Feb-19 20:33N 37°55' W 122°22'0 0.0
2017-Feb-19 19:33N 37°55' W 122°22'3 2.9
2017-Feb-19 18:33N 37°55' W 122°25'7 7.4
2017-Feb-19 17:33N 38°02' W 122°21'5 0.3
2017-Feb-19 00:17N 38°04' W 122°15'0 0.5
2017-Feb-18 23:33N 38°04' W 122°15'2 2.0
2017-Feb-18 22:33N 38°03' W 122°18'3 3.5
2017-Feb-18 21:33N 38°02' W 122°22'3 3.3
2017-Feb-18 20:33N 37°60' W 122°25'3 3.2
2017-Feb-18 19:33N 37°57' W 122°26'2 1.6
2017-Feb-18 18:33N 37°55' W 122°25'0 0.2
2017-Feb-18 17:32N 37°55' W 122°25'0 0.0
2017-Feb-18 16:32N 37°55' W 122°25'0 0.0
2017-Feb-18 15:32N 37°55' W 122°25'0 0.0
2017-Feb-18 14:32N 37°55' W 122°25'0 0.0
2017-Feb-18 13:14N 37°55' W 122°25'0 0.0
2017-Feb-18 12:32N 37°55' W 122°25'0 0.0
2017-Feb-18 10:26N 37°55' W 122°25'0 0.0
2017-Feb-18 09:32N 37°55' W 122°25'0 0.0
2017-Feb-18 08:29N 37°55' W 122°25'0 0.0
2017-Feb-18 07:29N 37°55' W 122°25'0 0.0
2017-Feb-18 06:29N 37°55' W 122°25'0 0.0
2017-Feb-18 05:26N 37°55' W 122°25'0 0.0
2017-Feb-18 04:32N 37°55' W 122°25'0 0.0
2017-Feb-18 02:29N 37°55' W 122°25'0 0.0
2017-Feb-18 01:14N 37°55' W 122°25'0 0.0
2017-Feb-18 00:32N 37°55' W 122°25'0 0.0
2017-Feb-17 23:29N 37°55' W 122°25'0 0.0
2017-Feb-17 22:26N 37°55' W 122°25'0 0.0
2017-Feb-17 21:32N 37°55' W 122°25'0 0.0
2017-Feb-17 20:32N 37°55' W 122°25'0 0.0
2017-Feb-17 19:32N 37°55' W 122°25'0 0.0
2017-Feb-17 18:32N 37°55' W 122°25'0 0.0
2017-Feb-17 17:32N 37°55' W 122°25'0 0.0
2017-Feb-17 16:32N 37°55' W 122°25'1 0.7
2017-Feb-17 15:33N 37°55' W 122°25'1 0.9
2017-Feb-17 14:33N 37°55' W 122°26'0 0.0
2017-Feb-17 13:33N 37°55' W 122°26'  

Dump ship's entire track history